TimeGMT,TemperatureF,Dew PointF,Humidity,Sea Level PressureIn,VisibilityMPH,Wind Direction,Wind SpeedMPH,Gust SpeedMPH,PrecipitationIn,Events,Conditions,WindDirDegrees,DateUTC
12:20 AM,35.6,35.6,100,30.01,4.3,SSW,3.5,-,N/A,,Unknown,210,2013-01-08 00:20:00
12:50 AM,35.6,33.8,93,30.01,3.1,Calm,Calm,-,N/A,,Haze,0,2013-01-08 00:50:00
1:20 AM,37.4,35.6,93,30.01,3.1,SSW,1.2,-,N/A,,Haze,200,2013-01-08 01:20:00
1:50 AM,33.8,33.8,100,30.01,3.7,Calm,Calm,-,N/A,,Unknown,0,2013-01-08 01:50:00
2:20 AM,33.8,32.0,93,30.01,6.2,Calm,Calm,-,N/A,,Unknown,0,2013-01-08 02:20:00
2:50 AM,33.8,32.0,93,30.01,5.0,Calm,Calm,-,N/A,,Mostly Cloudy,0,2013-01-08 02:50:00
3:20 AM,33.8,33.8,100,30.01,1.4,Calm,Calm,-,N/A,,Haze,0,2013-01-08 03:20:00
3:50 AM,35.6,33.8,93,30.01,6.2,North,2.3,-,N/A,,Scattered Clouds,350,2013-01-08 03:50:00
4:20 AM,33.8,33.8,100,30.01,6.2,NNE,1.2,-,N/A,,Partly Cloudy,20,2013-01-08 04:20:00
4:50 AM,39.2,37.4,93,30.01,1.8,SSE,11.5,-,N/A,,Haze,150,2013-01-08 04:50:00
5:20 AM,39.2,37.4,93,30.01,6.2,SE,11.5,-,N/A,,Unknown,140,2013-01-08 05:20:00
5:50 AM,39.2,39.2,100,29.98,-9999.0,SE,15.0,-,N/A,,Haze,140,2013-01-08 05:50:00
6:20 AM,42.8,41.0,93,29.98,3.1,SE,13.8,-,N/A,Fog,Fog,140,2013-01-08 06:20:00
6:50 AM,42.8,42.8,100,29.98,6.2,SE,17.3,-,N/A,,Scattered Clouds,130,2013-01-08 06:50:00
7:20 AM,42.8,42.8,100,29.98,6.2,SE,13.8,-,N/A,,Scattered Clouds,130,2013-01-08 07:20:00
7:50 AM,42.8,41.0,93,29.98,6.2,ESE,9.2,-,N/A,,Scattered Clouds,120,2013-01-08 07:50:00
8:20 AM,44.6,41.0,87,29.98,6.2,ESE,15.0,-,N/A,,Partly Cloudy,120,2013-01-08 08:20:00
8:50 AM,44.6,41.0,87,29.95,6.2,SE,17.3,-,N/A,,Partly Cloudy,130,2013-01-08 08:50:00
9:20 AM,44.6,41.0,87,29.95,6.2,ESE,19.6,-,N/A,,Scattered Clouds,120,2013-01-08 09:20:00
9:50 AM,44.6,41.0,87,29.95,6.2,SE,21.9,-,N/A,,Scattered Clouds,130,2013-01-08 09:50:00
10:20 AM,44.6,41.0,87,29.95,6.2,SE,23.0,-,N/A,,Scattered Clouds,130,2013-01-08 10:20:00
10:50 AM,44.6,42.8,93,29.95,6.2,ESE,19.6,-,N/A,,Mostly Cloudy,120,2013-01-08 10:50:00
11:20 AM,44.6,42.8,93,29.92,1.9,SE,19.6,-,N/A,,Light Drizzle,130,2013-01-08 11:20:00
11:50 AM,44.6,44.6,100,29.92,2.5,SE,21.9,-,N/A,,Light Drizzle,140,2013-01-08 11:50:00
12:20 PM,44.6,44.6,100,29.89,0.9,SE,28.8,-,N/A,,Light Drizzle,140,2013-01-08 12:20:00
12:50 PM,44.6,44.6,100,29.86,0.9,SE,25.3,-,N/A,,Drizzle,140,2013-01-08 12:50:00
1:50 PM,46.4,44.6,93,29.86,3.1,SE,24.2,-,N/A,Rain,Rain,140,2013-01-08 13:50:00
2:20 PM,46.4,44.6,93,29.83,3.7,SE,21.9,-,N/A,Rain,Rain,140,2013-01-08 14:20:00
2:50 PM,46.4,44.6,93,29.83,-9999.0,SSE,19.6,-,N/A,Rain,Rain,150,2013-01-08 14:50:00
3:20 PM,46.4,44.6,93,29.83,1.5,SSE,19.6,-,N/A,Rain,Rain,160,2013-01-08 15:20:00
3:50 PM,46.4,46.4,100,29.83,1.9,SSW,19.6,-,N/A,,Heavy Drizzle,200,2013-01-08 15:50:00
4:20 PM,46.4,44.6,93,29.83,6.2,SW,21.9,-,N/A,,Drizzle,230,2013-01-08 16:20:00
4:50 PM,46.4,42.8,87,29.83,6.2,SW,21.9,-,N/A,,Partly Cloudy,230,2013-01-08 16:50:00
5:20 PM,46.4,42.8,87,29.83,6.2,WSW,21.9,-,N/A,,Mostly Cloudy,240,2013-01-08 17:20:00
5:50 PM,46.4,41.0,81,29.83,6.2,WSW,26.5,-,N/A,,Mostly Cloudy,240,2013-01-08 17:50:00
6:20 PM,46.4,41.0,81,29.83,6.2,WSW,19.6,-,N/A,,Mostly Cloudy,240,2013-01-08 18:20:00
6:50 PM,46.4,41.0,81,29.83,6.2,SW,24.2,-,N/A,,Overcast,230,2013-01-08 18:50:00
7:20 PM,46.4,41.0,81,29.83,6.2,SW,21.9,-,N/A,,Scattered Clouds,230,2013-01-08 19:20:00
7:50 PM,44.6,41.0,87,29.83,6.2,SSW,17.3,-,N/A,,Unknown,210,2013-01-08 19:50:00
8:20 PM,46.4,41.0,81,29.83,6.2,SW,18.4,-,N/A,,Mostly Cloudy,220,2013-01-08 20:20:00
8:50 PM,44.6,41.0,87,29.83,6.2,SW,18.4,-,N/A,,Mostly Cloudy,220,2013-01-08 20:50:00
9:20 PM,46.4,41.0,81,29.83,6.2,SW,20.7,-,N/A,,Scattered Clouds,220,2013-01-08 21:20:00
9:50 PM,46.4,41.0,81,29.83,6.2,SW,21.9,-,N/A,,Scattered Clouds,220,2013-01-08 21:50:00
10:20 PM,46.4,41.0,81,29.83,6.2,SW,25.3,-,N/A,,Mostly Cloudy,220,2013-01-08 22:20:00
10:50 PM,44.6,39.2,81,29.83,6.2,SW,25.3,-,N/A,,Partly Cloudy,220,2013-01-08 22:50:00
11:20 PM,44.6,39.2,81,29.80,6.2,SW,23.0,-,N/A,,Unknown,220,2013-01-08 23:20:00
11:50 PM,44.6,39.2,81,29.80,6.2,SSW,23.0,-,N/A,,Scattered Clouds,210,2013-01-08 23:50:00